Aérodrome :
LOGIN :

S'inscrire | Disclaimer

   EN    FR    IT 

 










Légende :    VFR   VFR Marginal   IFR   IFR Intensif   IFR Très Intensif
Visi : 
Plafond : 
>= 8 km
>= 3000ft
5 à 8 km
1000 à 3000 ft
1500m à 5 km
500 à 1000 ft
800 à 1500m
200 à 500 ft
< 800m
< 200 ft
Symboles :   Orages  Brouillard  Fortes neiges  Fortes précipitations  Vent > 20 kt
SIGMETs :   Divers  Orages  Givrage  Turbulence  Onde Orograph.  Cendres Volcan.






- Altitude de l'aérodrome : 25 ft
- Code IATA : QCY


EGXC - RAF Coningsby

DERNIER METAR :
  • 122050Z 23006KT 9999 FEW012 BKN040 07/06 Q0972 RMK BLU

METARs EXPIRÉS :
  • 121950Z 22010KT 9999 SCT012 OVC030 07/07 Q0973 RMK GRN
  • 121850Z 18013KT 8000 RA FEW006 BKN007 OVC014 07/07 Q0974 BECMG FEW007 RMK GRN BECMG BLU
  • 121839Z 18013KT 7000 RA SCT006 BKN010 OVC014 07/07 Q0974 BECMG FEW006 SCT010 RMK YLO1 BECMG GRN
  • 121824Z 18014KT 5000 RA BKN007 OVC010 08/07 Q0974 BECMG FEW010 RMK GRN BECMG BLU

TAF TAF EGXC
Valide du 12 à 21h jusqu'au 13 à 15h UTC


121939Z 1221/1315 23010KT 9999 FEW008 BKN025
TEMPO 1221/1308 SCT014
PROB30
TEMPO 1301/1304 5000 RA
PROB30
TEMPO 1308/1315 SCT015



MET'MAP, la Météo Aéronautique d'un coup d'oeil ! - Copyright ORBIFLY Décembre 2007 - Disclaimer

ORBIFLY MET'MAP TEAM :

Programmation & Développement : Alexandra Zaïnal
Sur une idée originale de : Baudouin d'Aumeries
Assistance à la programmation : Marc-Olivier Méhu
Soutien technique & logistique : Manuel Goepfert

Contact : metmap@orbifly.com




SOURCES & CREDITS :

   NOAA